createdAt,value
2024-03-16T00:00:43.543Z,100505.00
2024-03-16T00:03:46.448Z,100509.94
2024-03-16T00:06:48.921Z,100510.81
2024-03-16T00:09:51.414Z,100487.00
2024-03-16T00:12:53.937Z,100510.13
2024-03-16T00:15:57.561Z,100515.38
2024-03-16T00:19:00.153Z,100486.44
2024-03-16T00:22:02.638Z,100510.22
2024-03-16T00:25:06.245Z,100502.50
2024-03-16T00:28:08.736Z,100486.41
2024-03-16T00:31:11.315Z,100512.09
2024-03-16T00:34:14.467Z,100513.09
2024-03-16T00:37:16.910Z,100506.84
2024-03-16T00:40:20.778Z,100500.28
2024-03-16T00:43:24.279Z,100480.25
2024-03-16T00:46:26.810Z,100513.50
2024-03-16T00:49:29.281Z,100496.50
2024-03-16T00:52:31.685Z,100502.66
2024-03-16T00:55:36.811Z,100479.00
2024-03-16T00:58:39.282Z,100487.53
2024-03-16T01:01:41.711Z,100484.97
2024-03-16T01:04:44.103Z,100489.84
2024-03-16T01:07:46.500Z,100469.41
2024-03-16T01:10:57.761Z,100487.22
2024-03-16T01:14:00.202Z,100460.03
2024-03-16T01:17:03.443Z,100471.28
2024-03-16T01:20:08.371Z,100467.09
2024-03-16T01:23:14.347Z,100475.59
2024-03-16T01:26:16.760Z,100473.84
2024-03-16T01:29:19.100Z,100473.75
2024-03-16T01:32:21.487Z,100469.47
2024-03-16T01:35:23.819Z,100469.41
2024-03-16T01:38:26.200Z,100470.28
2024-03-16T01:41:28.580Z,100435.25
2024-03-16T01:44:31.276Z,100442.84
2024-03-16T01:47:33.742Z,100450.72
2024-03-16T01:50:45.880Z,100470.28
2024-03-16T01:53:48.231Z,100448.03
2024-03-16T01:56:50.579Z,100484.94
2024-03-16T01:59:52.961Z,100457.75
2024-03-16T02:02:57.910Z,100468.63
2024-03-16T02:06:01.166Z,100483.31
2024-03-16T02:09:04.030Z,100458.66
2024-03-16T02:12:12.311Z,100486.56
2024-03-16T02:15:14.971Z,100478.13
2024-03-16T02:18:17.548Z,100477.34
2024-03-16T02:21:19.939Z,100490.38
2024-03-16T02:24:22.366Z,100486.88
2024-03-16T02:27:26.257Z,100463.97
2024-03-16T02:30:28.710Z,100486.88
2024-03-16T02:33:31.103Z,100490.28
2024-03-16T02:36:34.158Z,100489.28
2024-03-16T02:39:36.923Z,100485.91
2024-03-16T02:42:40.954Z,100490.00
2024-03-16T02:45:43.471Z,100455.91
2024-03-16T02:48:46.683Z,100466.31
2024-03-16T02:51:49.757Z,100468.22
2024-03-16T02:54:52.179Z,100479.09
2024-03-16T02:57:55.093Z,100463.84
2024-03-16T03:00:57.632Z,100492.00
2024-03-16T03:04:00.248Z,100475.91
2024-03-16T03:07:02.812Z,100476.63
2024-03-16T03:10:08.054Z,100491.91
2024-03-16T03:13:11.354Z,100480.19
2024-03-16T03:16:20.243Z,100492.84
2024-03-16T03:19:22.982Z,100507.47
2024-03-16T03:22:25.410Z,100504.88
2024-03-16T03:25:28.453Z,100501.47
2024-03-16T03:28:30.833Z,100508.31
2024-03-16T03:31:33.379Z,100470.03
2024-03-16T03:34:35.795Z,100478.56
2024-03-16T03:37:38.156Z,100482.91
2024-03-16T03:40:41.669Z,100476.81
2024-03-16T03:43:48.488Z,100501.50
2024-03-16T03:46:52.292Z,100488.81
2024-03-16T03:49:55.177Z,100493.69
2024-03-16T03:53:00.474Z,100463.63
2024-03-16T03:56:03.160Z,100509.25
2024-03-16T03:59:05.560Z,100507.38
2024-03-16T04:02:08.169Z,100484.94
2024-03-16T04:05:10.782Z,100504.41
2024-03-16T04:08:13.275Z,100480.44
2024-03-16T04:11:15.812Z,100490.41
2024-03-16T04:14:19.162Z,100491.13
2024-03-16T04:17:21.611Z,100498.66
2024-03-16T04:20:24.063Z,100497.84
2024-03-16T04:23:26.489Z,100524.94
2024-03-16T04:26:28.867Z,100523.06
2024-03-16T04:29:32.608Z,100528.69
2024-03-16T04:32:36.223Z,100525.00
2024-03-16T04:35:38.626Z,100517.25
2024-03-16T04:38:41.067Z,100509.31
2024-03-16T04:41:43.550Z,100504.75
2024-03-16T04:44:45.898Z,100503.78
2024-03-16T04:47:48.338Z,100506.28
2024-03-16T04:50:50.800Z,100507.66
2024-03-16T04:53:53.229Z,100524.50
2024-03-16T04:56:55.619Z,100545.63
2024-03-16T04:59:57.994Z,100517.66
2024-03-16T05:03:00.385Z,100540.47
2024-03-16T05:06:02.780Z,100525.13
2024-03-16T05:09:07.049Z,100538.47
2024-03-16T05:12:09.836Z,100529.16
2024-03-16T05:15:12.571Z,100524.69
2024-03-16T05:18:15.571Z,100532.50
2024-03-16T05:21:18.408Z,100559.75
2024-03-16T05:24:20.895Z,100527.34
2024-03-16T05:27:23.228Z,100540.13
2024-03-16T05:30:25.649Z,100540.91
2024-03-16T05:33:28.054Z,100524.69
2024-03-16T05:36:30.522Z,100530.31
2024-03-16T05:39:33.745Z,100549.75
2024-03-16T05:42:38.853Z,100553.13
2024-03-16T05:45:41.370Z,100556.38
2024-03-16T05:48:43.807Z,100547.69
2024-03-16T05:51:46.208Z,100550.09
2024-03-16T05:54:48.672Z,100566.34
2024-03-16T05:57:51.083Z,100568.00
2024-03-16T06:00:53.616Z,100568.56
2024-03-16T06:03:58.892Z,100567.72
2024-03-16T06:07:01.389Z,100551.97
2024-03-16T06:10:04.218Z,100556.81
2024-03-16T06:13:06.624Z,100566.00
2024-03-16T06:16:09.175Z,100549.44
2024-03-16T06:19:13.665Z,100571.28
2024-03-16T06:22:16.291Z,100569.84
2024-03-16T06:25:21.435Z,100575.34
2024-03-16T06:28:23.949Z,100578.31
2024-03-16T06:31:37.037Z,100567.53
2024-03-16T06:34:39.490Z,100578.56
2024-03-16T06:37:41.904Z,100585.31
2024-03-16T06:40:44.240Z,100557.22
2024-03-16T06:43:46.652Z,100584.72
2024-03-16T06:46:49.045Z,100588.81
2024-03-16T06:49:51.398Z,100565.50
2024-03-16T06:52:53.773Z,100578.16
2024-03-16T06:55:56.620Z,100572.75
2024-03-16T06:59:00.490Z,100587.47
2024-03-16T07:02:02.965Z,100606.19
2024-03-16T07:05:05.810Z,100605.84
2024-03-16T07:08:13.392Z,100603.06
2024-03-16T07:11:16.519Z,100604.28
2024-03-16T07:14:19.146Z,100598.59
2024-03-16T07:17:21.566Z,100603.47
2024-03-16T07:20:24.002Z,100615.59
2024-03-16T07:23:26.783Z,100619.63
2024-03-16T07:26:29.394Z,100604.56
2024-03-16T07:29:31.898Z,100610.53
2024-03-16T07:32:34.526Z,100628.53
2024-03-16T07:35:37.180Z,100631.13
2024-03-16T07:38:39.756Z,100622.91
2024-03-16T07:41:42.112Z,100609.88
2024-03-16T07:44:44.473Z,100610.38
2024-03-16T07:47:46.850Z,100609.88
2024-03-16T07:50:49.289Z,100607.53
2024-03-16T07:53:51.761Z,100608.19
2024-03-16T07:56:54.230Z,100640.47
2024-03-16T07:59:56.765Z,100613.81
2024-03-16T08:02:59.159Z,100629.50
2024-03-16T08:06:05.327Z,100632.47
2024-03-16T08:09:09.829Z,100637.84
2024-03-16T08:12:14.545Z,100631.63
2024-03-16T08:15:16.939Z,100612.53
2024-03-16T08:18:19.756Z,100627.81
2024-03-16T08:21:22.134Z,100600.13
2024-03-16T08:24:24.631Z,100631.91
2024-03-16T08:27:32.008Z,100628.66
2024-03-16T08:30:36.726Z,100606.44
2024-03-16T08:33:39.238Z,100610.31
2024-03-16T08:36:42.033Z,100621.78
2024-03-16T08:39:45.281Z,100600.88
2024-03-16T08:42:50.094Z,100599.41
2024-03-16T08:45:52.718Z,100626.16
2024-03-16T08:48:55.213Z,100620.22
2024-03-16T08:51:59.429Z,100632.81
2024-03-16T08:55:03.294Z,100603.84
2024-03-16T08:58:06.076Z,100612.88
2024-03-16T09:01:09.436Z,100631.09
2024-03-16T09:04:13.896Z,100608.13
2024-03-16T09:07:16.469Z,100625.72
2024-03-16T09:10:19.488Z,100609.25
2024-03-16T09:13:22.015Z,100608.72
2024-03-16T09:16:24.457Z,100629.88
2024-03-16T09:19:27.371Z,100630.56
2024-03-16T09:22:29.824Z,100618.28
2024-03-16T09:25:32.274Z,100606.69
2024-03-16T09:28:35.651Z,100606.34
2024-03-16T09:31:38.487Z,100618.34
2024-03-16T09:34:40.882Z,100626.50
2024-03-16T09:37:43.326Z,100621.91
2024-03-16T09:40:53.134Z,100602.84
